createdAt,value
2023-12-11T00:01:07.968Z,99378.64
2023-12-11T00:06:12.265Z,99376.22
2023-12-11T00:11:15.398Z,99372.95
2023-12-11T00:16:19.488Z,99364.67
2023-12-11T00:21:22.647Z,99352.42
2023-12-11T00:26:26.536Z,99353.98
2023-12-11T00:31:29.860Z,99345.52
2023-12-11T00:36:33.762Z,99346.23
2023-12-11T00:41:37.143Z,99357.64
2023-12-11T00:46:40.215Z,99354.89
2023-12-11T00:51:43.404Z,99337.28
2023-12-11T00:56:47.710Z,99333.48
2023-12-11T01:01:51.251Z,99336.10
2023-12-11T01:06:54.822Z,99326.76
2023-12-11T01:11:58.758Z,99316.05
2023-12-11T01:17:36.047Z,99316.23
2023-12-11T01:22:25.688Z,99314.86
2023-12-11T01:27:29.258Z,99319.03
2023-12-11T01:32:32.842Z,99327.35
2023-12-11T01:37:39.851Z,99323.21
2023-12-11T01:42:42.952Z,99316.13
2023-12-11T01:47:46.642Z,99307.69
2023-12-11T01:52:49.917Z,99291.43
2023-12-11T01:57:54.635Z,99285.04
2023-12-11T02:02:57.979Z,99284.19
2023-12-11T02:08:01.354Z,99276.75
2023-12-11T02:13:05.879Z,99268.46
2023-12-11T02:18:11.076Z,99265.20
2023-12-11T02:23:34.255Z,99264.51
2023-12-11T02:28:38.019Z,99265.02
2023-12-11T02:33:41.821Z,99255.52
2023-12-11T02:38:45.444Z,99241.86
2023-12-11T02:43:48.772Z,99228.73
2023-12-11T02:48:52.255Z,99231.15
2023-12-11T02:53:55.617Z,99236.86
2023-12-11T02:58:59.428Z,99225.27
2023-12-11T03:04:02.613Z,99221.13
2023-12-11T03:09:05.777Z,99220.95
2023-12-11T03:14:09.615Z,99221.13
2023-12-11T03:19:13.539Z,99225.29
2023-12-11T03:24:16.551Z,99209.70
2023-12-11T03:29:19.595Z,99211.60
2023-12-11T03:34:23.795Z,99212.65
2023-12-11T03:39:29.885Z,99207.98
2023-12-11T03:44:32.981Z,99202.77
2023-12-11T03:49:36.377Z,99198.45
2023-12-11T03:54:40.710Z,99196.89
2023-12-11T03:59:43.860Z,99191.00
2023-12-11T04:04:47.388Z,99194.79
2023-12-11T04:09:50.648Z,99186.13
2023-12-11T04:14:54.305Z,99191.66
2023-12-11T04:19:59.262Z,99180.39
2023-12-11T04:25:02.701Z,99173.63
2023-12-11T04:30:06.940Z,99164.44
2023-12-11T04:35:10.321Z,99152.48
2023-12-11T04:40:13.589Z,99143.29
2023-12-11T04:45:16.641Z,99142.58
2023-12-11T04:50:19.900Z,99131.84
2023-12-11T04:55:22.930Z,99116.40
2023-12-11T05:00:26.091Z,99118.48
2023-12-11T05:05:29.416Z,99119.34
2023-12-11T05:10:34.206Z,99115.53
2023-12-11T05:15:37.383Z,99109.48
2023-12-11T05:20:40.793Z,99118.98
2023-12-11T05:25:44.521Z,99124.89
2023-12-11T05:30:47.670Z,99123.99
2023-12-11T05:35:51.040Z,99125.04
2023-12-11T05:40:54.747Z,99125.21
2023-12-11T05:45:57.754Z,99122.09
2023-12-11T05:51:01.208Z,99103.38
2023-12-11T05:56:04.641Z,99096.27
2023-12-11T06:01:08.434Z,99094.54
2023-12-11T06:06:18.026Z,99119.65
2023-12-11T06:11:21.769Z,99118.43
2023-12-11T06:16:26.011Z,99123.27
2023-12-11T06:21:29.263Z,99132.08
2023-12-11T06:26:34.462Z,99130.33
2023-12-11T06:31:37.678Z,99130.83
2023-12-11T06:36:40.948Z,99110.35
2023-12-11T06:41:45.250Z,99109.83
2023-12-11T06:46:48.733Z,99106.17
2023-12-11T06:51:54.442Z,99091.95
2023-12-11T06:56:57.728Z,99097.30
2023-12-11T07:02:06.029Z,99091.05
2023-12-11T07:07:09.654Z,99092.92
2023-12-11T07:12:12.675Z,99099.49
2023-12-11T07:17:15.780Z,99101.91
2023-12-11T07:22:18.848Z,99100.48
2023-12-11T07:27:21.871Z,99100.65
2023-12-11T07:32:24.805Z,99094.56
2023-12-11T07:37:28.680Z,99090.22
2023-12-11T07:42:32.726Z,99099.58
2023-12-11T07:47:36.959Z,99098.88
2023-12-11T07:52:40.189Z,99091.92
2023-12-11T07:57:43.248Z,99090.87
2023-12-11T08:02:46.430Z,99090.52
2023-12-11T08:07:49.823Z,99091.20
2023-12-11T08:12:55.873Z,99078.70
2023-12-11T08:17:59.619Z,99075.91
2023-12-11T08:23:03.533Z,99071.38
2023-12-11T08:28:07.260Z,99066.50
2023-12-11T08:33:11.958Z,99055.04
2023-12-11T08:38:17.770Z,99039.73
2023-12-11T08:43:21.874Z,99025.98
2023-12-11T08:48:28.513Z,99026.13
2023-12-11T08:53:31.978Z,99029.22
2023-12-11T08:58:35.736Z,99031.64
2023-12-11T09:03:39.359Z,99035.58
2023-12-11T09:08:43.107Z,99025.83
2023-12-11T09:13:46.052Z,99015.20
2023-12-11T09:18:49.950Z,99003.50
2023-12-11T09:23:53.674Z,98999.26
2023-12-11T09:28:57.625Z,98982.17
2023-12-11T09:34:01.029Z,98976.77
2023-12-11T09:39:06.120Z,98966.63
2023-12-11T09:44:10.178Z,98961.33
2023-12-11T09:49:13.313Z,98952.09
2023-12-11T09:54:16.467Z,98930.86
2023-12-11T09:59:19.965Z,98921.27
2023-12-11T10:04:23.037Z,98904.74
2023-12-11T10:09:37.589Z,98937.75
2023-12-11T10:14:41.577Z,98936.81
2023-12-11T10:19:45.230Z,98923.05
2023-12-11T10:24:49.053Z,98913.14
2023-12-11T10:30:16.121Z,98901.34
2023-12-11T10:35:28.961Z,98892.09
2023-12-11T10:40:43.272Z,98890.98
2023-12-11T10:45:51.092Z,98890.05
2023-12-11T10:50:55.498Z,98885.67
2023-12-11T10:56:02.760Z,98879.41
2023-12-11T11:01:08.853Z,98866.88
2023-12-11T11:06:12.880Z,98855.01
2023-12-11T11:11:30.656Z,98850.95
2023-12-11T11:16:58.857Z,98845.02
2023-12-11T11:22:01.885Z,98834.73
2023-12-11T11:27:44.061Z,98821.47
2023-12-11T11:32:57.041Z,98816.53
2023-12-11T11:38:00.051Z,98820.63
2023-12-11T11:43:04.717Z,98813.84
2023-12-11T11:48:09.126Z,98817.64
2023-12-11T11:53:15.366Z,98822.91
2023-12-11T11:58:18.554Z,98824.14
2023-12-11T12:03:21.630Z,98821.41
2023-12-11T12:08:25.322Z,98812.80
2023-12-11T12:13:35.753Z,98806.45
2023-12-11T12:18:54.000Z,98796.55
2023-12-11T12:24:07.860Z,98789.61
2023-12-11T12:29:14.410Z,98782.16
2023-12-11T12:34:19.356Z,98780.55
2023-12-11T12:39:22.940Z,98777.44
2023-12-11T12:44:28.367Z,98772.72
2023-12-11T12:49:35.471Z,98769.75
2023-12-11T12:54:51.942Z,98768.14
2023-12-11T12:59:56.553Z,98764.06
2023-12-11T13:04:59.847Z,98760.20
2023-12-11T13:10:13.049Z,98760.73
2023-12-11T13:15:16.712Z,98744.24
2023-12-11T13:20:21.563Z,98749.31
2023-12-11T13:25:24.909Z,98755.27
2023-12-11T13:30:30.880Z,98753.95
2023-12-11T13:35:36.850Z,98748.95
2023-12-11T13:40:41.486Z,98748.64
2023-12-11T13:45:47.415Z,98745.92
2023-12-11T13:50:51.192Z,98747.52
2023-12-11T13:55:54.420Z,98735.73
2023-12-11T14:00:57.535Z,98738.71
2023-12-11T14:06:00.576Z,98744.47
2023-12-11T14:11:04.280Z,98746.52
2023-12-11T14:16:09.557Z,98753.65
2023-12-11T14:21:13.260Z,98755.53
2023-12-11T14:26:16.305Z,98759.70
2023-12-11T14:31:19.416Z,98768.71
2023-12-11T14:36:27.378Z,98767.11
2023-12-11T14:41:30.912Z,98762.39
2023-12-11T14:46:33.942Z,98754.02
2023-12-11T14:51:40.814Z,98758.31
2023-12-11T14:56:44.519Z,98753.60
2023-12-11T15:01:49.156Z,98755.89
2023-12-11T15:06:54.816Z,98757.46
2023-12-11T15:11:58.781Z,98746.18
2023-12-11T15:17:02.217Z,98751.05
2023-12-11T15:22:05.608Z,98744.98
2023-12-11T15:33:23.613Z,98741.61
2023-12-11T15:38:29.778Z,98747.27
2023-12-11T15:43:33.531Z,98743.77
2023-12-11T15:48:40.123Z,98730.83
2023-12-11T15:53:47.540Z,98725.91
2023-12-11T15:58:50.597Z,98727.30
2023-12-11T16:03:54.241Z,98731.45
2023-12-11T16:08:57.297Z,98731.59
2023-12-11T16:14:02.728Z,98730.70
2023-12-11T16:19:06.563Z,98735.36
2023-12-11T16:24:10.195Z,98726.42
2023-12-11T16:29:13.247Z,98732.98
2023-12-11T16:34:16.570Z,98731.23
2023-12-11T16:39:19.574Z,98724.78
2023-12-11T16:44:22.541Z,98722.89
2023-12-11T16:49:25.711Z,98727.73
2023-12-11T16:54:28.670Z,98719.59
2023-12-11T16:59:31.990Z,98713.66
2023-12-11T17:04:35.018Z,98705.98
2023-12-11T17:09:39.072Z,98710.31
2023-12-11T17:14:44.212Z,98711.66
2023-12-11T17:19:47.579Z,98706.23
2023-12-11T17:24:50.730Z,98698.91
2023-12-11T17:29:53.834Z,98694.86
2023-12-11T17:34:57.444Z,98699.88
2023-12-11T17:40:09.664Z,98698.46
2023-12-11T17:45:14.334Z,98691.50
2023-12-11T17:50:18.941Z,98688.49
2023-12-11T17:55:22.774Z,98689.35
2023-12-11T18:00:26.797Z,98694.06
2023-12-11T18:05:30.447Z,98692.36
2023-12-11T18:10:34.511Z,98688.86
2023-12-11T18:15:38.569Z,98683.84
2023-12-11T18:20:42.322Z,98678.29
2023-12-11T18:25:45.159Z,98679.88
2023-12-11T18:30:48.999Z,98677.42
2023-12-11T18:35:52.157Z,98676.73
2023-12-11T18:40:55.001Z,98670.11
2023-12-11T18:45:58.096Z,98681.55
2023-12-11T18:51:01.382Z,98671.30
2023-12-11T18:56:05.123Z,98674.06
2023-12-11T19:01:11.863Z,98674.88
2023-12-11T19:06:15.222Z,98666.67
2023-12-11T19:11:19.148Z,98665.98
2023-12-11T19:16:22.260Z,98673.43
2023-12-11T19:21:27.693Z,98665.24
2023-12-11T19:26:30.767Z,98663.67
2023-12-11T19:31:34.342Z,98659.00
2023-12-11T19:36:40.760Z,98652.77
2023-12-11T19:41:50.453Z,98657.18
2023-12-11T19:46:54.911Z,98653.06
2023-12-11T19:52:01.015Z,98653.79
2023-12-11T19:57:04.282Z,98662.16
2023-12-11T20:02:09.528Z,98659.59
2023-12-11T20:07:14.140Z,98660.66
2023-12-11T20:12:17.212Z,98659.99
2023-12-11T20:17:22.965Z,98662.09
2023-12-11T20:22:26.255Z,98662.99
2023-12-11T20:27:35.579Z,98659.50
2023-12-11T20:32:38.987Z,98653.40
2023-12-11T20:37:42.675Z,98657.33
2023-12-11T20:42:45.943Z,98662.71
2023-12-11T20:47:50.816Z,98662.00
2023-12-11T20:52:54.663Z,98669.17
2023-12-11T20:57:58.046Z,98666.25
2023-12-11T21:03:03.766Z,98652.56
2023-12-11T21:08:09.976Z,98661.10
2023-12-11T21:13:15.522Z,98656.98
2023-12-11T21:18:18.657Z,98660.70
2023-12-11T21:23:23.846Z,98652.05
2023-12-11T21:28:27.066Z,98649.30
2023-12-11T21:33:30.718Z,98652.94
2023-12-11T21:38:33.975Z,98653.31
2023-12-11T21:43:36.949Z,98652.80
2023-12-11T21:48:41.738Z,98659.25
2023-12-11T21:53:47.281Z,98652.16
2023-12-11T21:58:51.911Z,98656.40
2023-12-11T22:03:54.977Z,98650.54
2023-12-11T22:08:58.759Z,98649.02
2023-12-11T22:14:02.981Z,98650.56
2023-12-11T22:19:06.446Z,98654.95
2023-12-11T22:24:10.463Z,98648.69
2023-12-11T22:29:15.863Z,98651.42
2023-12-11T22:34:19.769Z,98644.77
2023-12-11T22:39:23.631Z,98638.79
2023-12-11T22:44:27.728Z,98635.97
2023-12-11T22:49:31.517Z,98636.33
2023-12-11T22:54:34.830Z,98636.48
2023-12-11T22:59:38.090Z,98633.52
2023-12-11T23:04:42.063Z,98632.98
2023-12-11T23:09:45.711Z,98623.58
2023-12-11T23:14:48.765Z,98622.49
2023-12-11T23:19:52.445Z,98620.08
2023-12-11T23:24:56.338Z,98629.48
2023-12-11T23:30:06.670Z,98620.96
2023-12-11T23:35:11.220Z,98620.81
2023-12-11T23:40:14.818Z,98620.30
2023-12-11T23:45:17.967Z,98615.95
2023-12-11T23:50:21.266Z,98619.42
2023-12-11T23:55:24.583Z,98627.07
